Weather observations for the past three days for
Cancun International Airport
Imperial (Metric)
Date Time (est) Wind (mph) Vis. (mi.) Weather Sky Cond. Temperature (ºF) Relative Humidity Wind Chill (°F) Heat Index (°F) Pressure Precipitation (in)
Air Dwpt 6 hour altimeter (in) sea level (mb) 1 hr 3 hr 6 hr
Max. Min.
05 21:40 Calm 7.00 Partly Cloudy FEW080 SCT250 84.2 78.8 84% 96 29.91 1013.1
05 20:41 Calm 7.00 Partly Cloudy FEW080 SCT250 84.2 78.8 84% 96 29.9 0.0
05 19:41 E 5 7.00 Mostly Cloudy FEW015 SCT080 BKN250 86 78.8 79% 99 29.89 0.0
05 18:40 E 3 7.00 Mostly Cloudy FEW015 SCT090 BKN250 86 78.8 79% 99 29.89 1012.0
05 17:40 E 6 7.00 Overcast FEW015 SCT090 OVC250 86 78.8 79% 99 29.89 0.0
05 16:45 E 5 7.00 Overcast FEW015 SCT090 OVC250 86 78.8 79% 99 29.89 0.0
05 15:44 E 7 7.00 Mostly Cloudy SCT015 BKN250 87.8 78.8 75% 102 29.89 1012.5
05 14:46 SE 7 7.00 Mostly Cloudy SCT015CB BKN250 87.8 78.8 75% 102 29.9 0.0
05 12:44 SE 10 7.00 Mostly Cloudy SCT015CB BKN250 91.4 77 63% 105 29.93 1013.7
05 11:47 E 7 7.00 Partly Cloudy SCT015TCU 91.4 80.6 71% 111 29.97 0.0
05 10:44 SE 8 7.00 Partly Cloudy SCT015 89.6 77 67% 103 29.96 0.0
05 09:43 S 9 7.00 Partly Cloudy SCT015 SCT250 87.8 78.8 75% 102 29.96 1014.6
05 08:45 Calm 7.00 Partly Cloudy SCT015 SCT250 82.4 80.6 94% 94 29.95 0.0
05 07:47 NW 2 6.00 Mostly Cloudy SCT015CB BKN250 82.4 82.4 100% 96 29.94 0.0
05 07:36 W 5 6.00 Light Rain SCT015CB BKN250 80.6 77 89% 87 29.93 0.0
05 07:11 SE 14 1.50 Thunderstorm Rain BKN010CB BKN250 78.8 75.2 89% 82 29.94 0.0
05 07:08 SE 16 3.00 Thunderstorm Rain BKN012CB BKN250 78.8 77 94% 83 29.93 0.0
05 06:40 Calm 7.00 Partly Cloudy SCT015TCU 80.6 77 89% 87 29.91 1012.8
05 05:40 Calm 7.00 Partly Cloudy SCT080 80.6 77 89% 87 29.9 0.0
05 04:41 E 2 7.00 Partly Cloudy SCT080 82.4 77 84% 91 29.9 0.0
05 03:40 SE 2 7.00 Partly Cloudy SCT080 82.4 77 84% 91 29.9 1012.7
05 02:40 Calm 7.00 Partly Cloudy SCT080 82.4 77 84% 91 29.91 0.0
05 01:40 SE 3 7.00 Partly Cloudy FEW015 SCT080 84.2 77 79% 94 29.93 0.0
05 00:40 E 3 7.00 Partly Cloudy FEW015 SCT080 84.2 78.8 84% 96 29.95 1014.2
04 23:40 E 3 7.00 Partly Cloudy SCT080 SCT250 84.2 78.8 84% 96 29.96 0.0
04 22:41 Calm 7.00 Partly Cloudy FEW080 SCT250 84.2 77 79% 94 29.96 0.0
04 21:40 E 2 7.00 Partly Cloudy FEW080 SCT250 84.2 77 79% 94 29.94 1014.1
04 20:42 E 6 7.00 Partly Cloudy FEW080 SCT250 86 78.8 79% 99 29.93 0.0
04 19:42 E 6 7.00 Partly Cloudy FEW080 SCT250 86 78.8 79% 99 29.92 0.0
04 18:45 Calm 7.00 Partly Cloudy SCT250 87.8 78.8 75% 102 29.92 1013.3
04 17:40 E 7 7.00 Partly Cloudy SCT250 89.6 78.8 71% 105 29.91 0.0
04 16:44 E 9 7.00 Partly Cloudy FEW015 SCT250 89.6 77 67% 103 29.91 0.0
04 15:44 E 10 7.00 Partly Cloudy FEW015TCU SCT250 91.4 77 63% 105 29.91 1012.9
04 14:44 SE 12 7.00 Partly Cloudy SCT015 91.4 78.8 67% 108 29.93 0.0
04 13:45 S 14 7.00 A Few Clouds FEW015CB 93.2 77 59% 107 29.94 0.0
04 12:49 SE 9 7.00 Partly Cloudy SCT015TCU 91.4 78.8 67% 108 29.97 1014.9
04 11:42 SE 7 7.00 Partly Cloudy SCT015 91.4 78.8 67% 108 29.98 0.0
04 10:41 S 9 7.00 Partly Cloudy SCT015 89.6 78.8 71% 105 29.99 0.0
04 09:47 SE 8 7.00 A Few Clouds FEW015 89.6 78.8 71% 105 29.97 1014.9
04 08:45 SE 5 7.00 Partly Cloudy FEW015TCU SCT080 87.8 78.8 75% 102 29.96 0.0
04 07:51 SE 3 7.00 Partly Cloudy FEW015TCU SCT080 86 78.8 79% 99 29.95 0.0
04 06:40 N 2 7.00 Mostly Cloudy SCT015TCU BKN080 80.6 78.8 94% 88 29.93 1013.8
04 05:44 NW 2 7.00 A Few Clouds FEW015TCU 78.8 77 94% 83 29.92 0.0
04 04:41 Calm 7.00 A Few Clouds FEW015TCU 78.8 77 94% 83 29.9 0.0
04 03:40 Calm 7.00 A Few Clouds FEW250 78.8 77 94% 83 29.91 1012.8
04 02:44 Calm 7.00 Partly Cloudy SCT250 78.8 77 94% 83 29.91 0.0
04 01:40 Calm 7.00 Partly Cloudy SCT250 78.8 77 94% 83 29.93 0.0
04 00:40 Calm 7.00 Partly Cloudy SCT250 82.4 78.8 89% 92 29.94 1014.0
03 23:42 SE 2 7.00 Partly Cloudy SCT250 84.2 78.8 84% 96 29.96 0.0
03 22:45 SE 3 7.00 Partly Cloudy SCT250 84.2 78.8 84% 96 29.97 0.0
03 21:40 E 3 7.00 Partly Cloudy FEW015 SCT250 84.2 78.8 84% 96 29.97 1014.9
03 20:41 Calm 7.00 Mostly Cloudy FEW015 BKN250 84.2 78.8 84% 96 29.95 0.0
03 19:40 Calm 7.00 Mostly Cloudy FEW015 BKN250 84.2 78.8 84% 96 29.93 0.0
03 18:47 SE 5 7.00 Mostly Cloudy FEW015TCU SCT090 BKN250 86 78.8 79% 99 29.92 1013.4
03 17:40 E 5 7.00 Overcast FEW015 SCT090 OVC250 86 78.8 79% 99 29.92 0.0
03 16:42 SE 6 7.00 Overcast FEW015TCU BKN090 OVC250 86 77 75% 97 29.91 0.0
03 15:41 Calm 7.00 Overcast SCT015TCU BKN090 OVC250 84.2 71.6 66% 90 29.93 1013.2
03 14:40 NW 9 6.00 Thunderstorm in Vicinity SCT015CB SCT090 BKN250 86 71.6 62% 92 29.95 0.0
03 13:42 SE 9 6.00 Thunderstorm BKN015CB BKN250 89.6 78.8 71% 105 29.94 0.0
03 12:45 SE 9 7.00 Mostly Cloudy BKN015CB BKN250 91.4 78.8 67% 108 29.94 1014.0
03 11:41 S 7 7.00 Partly Cloudy SCT015CB 91.4 78.8 67% 108 29.96 0.0
03 10:47 SE 9 7.00 Partly Cloudy SCT015CB 91.4 77 63% 105 29.96 0.0
03 09:45 NE 2 7.00 Partly Cloudy SCT015CB 89.6 78.8 71% 105 29.96 1014.6
03 08:53 SE 2 7.00 Partly Cloudy SCT015CB 86 78.8 79% 99 29.96 0.0
03 07:51 Calm 7.00 Partly Cloudy SCT015TCU 84.2 77 79% 94 29.96 0.0
03 06:47 W 3 7.00 Mostly Cloudy BKN015TCU 78.8 75.2 89% 82 29.96 1014.5
03 05:45 SE 6 6.00 Partly Cloudy SCT015TCU 80.6 78.8 94% 88 29.94 0.0
03 04:53 NW 3 7.00 A Few Clouds FEW015 78.8 77 94% 83 29.94 0.0
03 03:50 Calm 7.00 A Few Clouds FEW015 78.8 77 94% 83 29.93 1013.7
03 02:42 SE 3 7.00 A Few Clouds FEW015 84.2 80.6 89% 98 29.93 0.0
03 01:49 E 2 7.00 A Few Clouds FEW015 84.2 80.6 89% 98 29.95 0.0
03 00:41 E 2 7.00 A Few Clouds FEW015 84.2 80.6 89% 98 29.96 1014.6
02 23:43 Calm 7.00 A Few Clouds FEW015 84.2 80.6 89% 98 29.97 0.0
Date Time (est) Wind (mph) Vis. (mi.) Weather Sky Cond. Air Dwpt Max. Min. Relative Humidity Wind Chill (°F) Heat Index (°F) altimeter (in) sea level (mb) 1 hr 3 hr 6 hr
6 hour
Temperature (ºF) Pressure Precipitation (in)